sensor_id;sensor_type;location;lat;lon;timestamp;noise_LAeq;noise_LA_min;noise_LA_max;noise_LA01;noise_LA95
40103;Laerm;25814;48.550;9.108;2023-10-19T00:02:08;40.62;38.51;43.63;;
40103;Laerm;25814;48.550;9.108;2023-10-19T00:04:36;41.62;38.62;49.11;;
40103;Laerm;25814;48.550;9.108;2023-10-19T00:07:02;43.56;42.16;52.12;;
40103;Laerm;25814;48.550;9.108;2023-10-19T00:09:30;42.21;40.52;51.85;;
40103;Laerm;25814;48.550;9.108;2023-10-19T00:12:03;42.29;40.55;49.37;;
40103;Laerm;25814;48.550;9.108;2023-10-19T00:14:29;41.66;39.70;49.13;;
40103;Laerm;25814;48.550;9.108;2023-10-19T00:16:57;43.29;40.30;51.88;;
40103;Laerm;25814;48.550;9.108;2023-10-19T00:19:26;44.83;40.78;52.34;;
40103;Laerm;25814;48.550;9.108;2023-10-19T00:21:56;47.30;44.09;53.48;;
40103;Laerm;25814;48.550;9.108;2023-10-19T00:24:27;51.06;47.64;56.57;;
40103;Laerm;25814;48.550;9.108;2023-10-19T00:26:56;50.00;47.51;55.67;;
40103;Laerm;25814;48.550;9.108;2023-10-19T00:29:30;47.27;42.97;51.82;;
40103;Laerm;25814;48.550;9.108;2023-10-19T00:31:57;46.13;43.07;54.22;;
40103;Laerm;25814;48.550;9.108;2023-10-19T00:34:25;45.77;43.06;50.38;;
40103;Laerm;25814;48.550;9.108;2023-10-19T00:36:51;44.96;43.53;50.88;;
40103;Laerm;25814;48.550;9.108;2023-10-19T00:39:17;45.75;43.14;52.66;;
40103;Laerm;25814;48.550;9.108;2023-10-19T00:41:47;43.10;38.94;50.33;;
40103;Laerm;25814;48.550;9.108;2023-10-19T00:44:14;39.86;36.63;50.54;;
40103;Laerm;25814;48.550;9.108;2023-10-19T00:46:58;37.32;34.36;48.78;;
40103;Laerm;25814;48.550;9.108;2023-10-19T00:49:37;44.34;37.00;51.96;;
40103;Laerm;25814;48.550;9.108;2023-10-19T00:52:06;47.96;45.03;55.00;;
40103;Laerm;25814;48.550;9.108;2023-10-19T00:54:42;46.76;43.58;53.14;;
40103;Laerm;25814;48.550;9.108;2023-10-19T00:57:15;43.64;41.60;50.80;;
40103;Laerm;25814;48.550;9.108;2023-10-19T00:59:48;42.18;38.71;48.12;;
40103;Laerm;25814;48.550;9.108;2023-10-19T01:02:26;39.36;36.04;49.31;;
40103;Laerm;25814;48.550;9.108;2023-10-19T01:04:54;41.36;35.28;50.27;;
40103;Laerm;25814;48.550;9.108;2023-10-19T01:07:31;47.90;42.11;54.43;;
40103;Laerm;25814;48.550;9.108;2023-10-19T01:10:04;41.20;35.43;50.13;;
40103;Laerm;25814;48.550;9.108;2023-10-19T01:12:33;36.88;33.39;45.31;;
40103;Laerm;25814;48.550;9.108;2023-10-19T01:15:11;35.28;32.63;41.44;;
40103;Laerm;25814;48.550;9.108;2023-10-19T01:17:48;34.36;31.62;43.54;;
40103;Laerm;25814;48.550;9.108;2023-10-19T01:20:20;33.68;31.18;39.59;;
40103;Laerm;25814;48.550;9.108;2023-10-19T01:22:55;36.49;31.58;48.99;;
40103;Laerm;25814;48.550;9.108;2023-10-19T01:25:58;33.52;31.05;45.57;;
40103;Laerm;25814;48.550;9.108;2023-10-19T01:28:33;32.97;30.82;44.03;;
40103;Laerm;25814;48.550;9.108;2023-10-19T01:31:11;32.68;30.39;38.56;;
40103;Laerm;25814;48.550;9.108;2023-10-19T01:33:45;32.93;30.48;41.63;;
40103;Laerm;25814;48.550;9.108;2023-10-19T01:36:12;32.76;30.65;41.19;;
40103;Laerm;25814;48.550;9.108;2023-10-19T01:38:46;32.38;30.43;41.56;;
40103;Laerm;25814;48.550;9.108;2023-10-19T01:41:13;32.71;30.05;40.70;;
40103;Laerm;25814;48.550;9.108;2023-10-19T01:43:44;31.78;30.08;38.11;;
40103;Laerm;25814;48.550;9.108;2023-10-19T01:46:13;33.09;30.35;48.58;;
40103;Laerm;25814;48.550;9.108;2023-10-19T01:48:48;32.62;30.07;38.79;;
40103;Laerm;25814;48.550;9.108;2023-10-19T01:51:22;32.82;30.54;37.86;;
40103;Laerm;25814;48.550;9.108;2023-10-19T01:53:49;32.09;30.25;40.37;;
40103;Laerm;25814;48.550;9.108;2023-10-19T01:56:16;32.62;30.34;44.03;;
40103;Laerm;25814;48.550;9.108;2023-10-19T01:58:44;32.72;30.05;39.20;;
40103;Laerm;25814;48.550;9.108;2023-10-19T02:01:12;31.94;29.54;39.75;;
40103;Laerm;25814;48.550;9.108;2023-10-19T02:03:40;32.00;29.37;38.41;;
40103;Laerm;25814;48.550;9.108;2023-10-19T02:06:11;31.94;30.02;40.43;;
40103;Laerm;25814;48.550;9.108;2023-10-19T02:08:52;31.58;29.93;38.63;;
40103;Laerm;25814;48.550;9.108;2023-10-19T02:11:22;31.53;29.64;37.90;;
40103;Laerm;25814;48.550;9.108;2023-10-19T02:13:52;32.79;30.23;40.53;;
40103;Laerm;25814;48.550;9.108;2023-10-19T02:16:20;33.41;29.88;40.00;;
40103;Laerm;25814;48.550;9.108;2023-10-19T02:18:51;31.45;29.33;40.37;;
40103;Laerm;25814;48.550;9.108;2023-10-19T02:21:19;31.49;29.46;38.07;;
40103;Laerm;25814;48.550;9.108;2023-10-19T02:23:50;32.46;29.67;36.42;;
40103;Laerm;25814;48.550;9.108;2023-10-19T02:26:20;30.82;29.11;41.65;;
40103;Laerm;25814;48.550;9.108;2023-10-19T02:28:49;32.23;29.25;42.48;;
40103;Laerm;25814;48.550;9.108;2023-10-19T02:31:19;32.68;29.76;37.30;;
40103;Laerm;25814;48.550;9.108;2023-10-19T02:33:50;31.74;30.21;36.77;;
40103;Laerm;25814;48.550;9.108;2023-10-19T02:36:26;31.37;29.53;37.14;;
40103;Laerm;25814;48.550;9.108;2023-10-19T02:38:59;33.42;30.50;40.35;;
40103;Laerm;25814;48.550;9.108;2023-10-19T02:41:28;33.44;29.92;41.01;;
40103;Laerm;25814;48.550;9.108;2023-10-19T02:43:55;32.81;30.81;36.40;;
40103;Laerm;25814;48.550;9.108;2023-10-19T02:46:32;32.36;29.76;37.38;;
40103;Laerm;25814;48.550;9.108;2023-10-19T02:49:02;31.65;29.61;37.57;;
40103;Laerm;25814;48.550;9.108;2023-10-19T02:51:30;32.79;30.46;53.68;;
40103;Laerm;25814;48.550;9.108;2023-10-19T02:53:56;32.43;30.33;37.66;;
40103;Laerm;25814;48.550;9.108;2023-10-19T02:56:27;33.37;30.59;40.95;;
40103;Laerm;25814;48.550;9.108;2023-10-19T02:58:56;32.19;30.35;37.59;;
40103;Laerm;25814;48.550;9.108;2023-10-19T03:01:23;32.57;30.05;37.53;;
40103;Laerm;25814;48.550;9.108;2023-10-19T03:03:54;31.69;29.95;38.37;;
40103;Laerm;25814;48.550;9.108;2023-10-19T03:06:25;32.47;30.24;37.68;;
40103;Laerm;25814;48.550;9.108;2023-10-19T03:08:51;33.03;30.74;43.46;;
40103;Laerm;25814;48.550;9.108;2023-10-19T03:11:26;32.98;31.04;41.24;;
40103;Laerm;25814;48.550;9.108;2023-10-19T03:13:53;33.75;30.65;42.89;;
40103;Laerm;25814;48.550;9.108;2023-10-19T03:16:19;32.84;31.23;36.81;;
40103;Laerm;25814;48.550;9.108;2023-10-19T03:18:46;33.19;31.22;40.99;;
40103;Laerm;25814;48.550;9.108;2023-10-19T03:21:12;33.61;30.77;39.90;;
40103;Laerm;25814;48.550;9.108;2023-10-19T03:23:38;32.76;31.11;36.55;;
40103;Laerm;25814;48.550;9.108;2023-10-19T03:26:06;32.24;30.55;37.13;;
40103;Laerm;25814;48.550;9.108;2023-10-19T03:28:51;32.26;30.74;40.61;;
40103;Laerm;25814;48.550;9.108;2023-10-19T03:31:24;32.08;29.58;49.83;;
40103;Laerm;25814;48.550;9.108;2023-10-19T03:33:52;34.36;30.68;38.16;;
40103;Laerm;25814;48.550;9.108;2023-10-19T03:36:25;35.25;32.73;41.53;;
40103;Laerm;25814;48.550;9.108;2023-10-19T03:38:52;34.25;31.80;39.08;;
40103;Laerm;25814;48.550;9.108;2023-10-19T03:41:19;35.42;33.06;40.12;;
40103;Laerm;25814;48.550;9.108;2023-10-19T03:43:55;37.29;33.03;44.71;;
40103;Laerm;25814;48.550;9.108;2023-10-19T03:46:23;34.86;31.90;48.93;;
40103;Laerm;25814;48.550;9.108;2023-10-19T03:49:03;33.89;31.78;38.54;;
40103;Laerm;25814;48.550;9.108;2023-10-19T03:51:36;33.99;31.57;40.09;;
40103;Laerm;25814;48.550;9.108;2023-10-19T03:54:15;36.03;31.24;46.65;;
40103;Laerm;25814;48.550;9.108;2023-10-19T03:56:49;35.50;32.24;41.07;;
40103;Laerm;25814;48.550;9.108;2023-10-19T03:59:16;35.20;31.47;49.46;;
40103;Laerm;25814;48.550;9.108;2023-10-19T04:01:43;51.94;32.48;74.91;;
40103;Laerm;25814;48.550;9.108;2023-10-19T04:04:10;36.86;32.69;40.48;;
40103;Laerm;25814;48.550;9.108;2023-10-19T04:06:37;37.62;33.64;44.58;;
40103;Laerm;25814;48.550;9.108;2023-10-19T04:09:03;37.63;33.35;47.95;;
40103;Laerm;25814;48.550;9.108;2023-10-19T04:11:33;36.08;33.26;41.27;;
40103;Laerm;25814;48.550;9.108;2023-10-19T04:14:13;36.55;32.93;45.24;;
40103;Laerm;25814;48.550;9.108;2023-10-19T04:16:40;35.16;32.82;38.93;;
40103;Laerm;25814;48.550;9.108;2023-10-19T04:19:09;36.56;32.60;43.42;;
40103;Laerm;25814;48.550;9.108;2023-10-19T04:21:36;36.51;33.68;40.84;;
40103;Laerm;25814;48.550;9.108;2023-10-19T04:24:05;35.61;33.24;40.73;;
40103;Laerm;25814;48.550;9.108;2023-10-19T04:26:33;39.55;33.32;49.02;;
40103;Laerm;25814;48.550;9.108;2023-10-19T04:29:00;36.09;33.28;47.03;;
40103;Laerm;25814;48.550;9.108;2023-10-19T04:31:34;37.66;34.07;46.01;;
40103;Laerm;25814;48.550;9.108;2023-10-19T04:34:02;37.77;33.60;44.37;;
40103;Laerm;25814;48.550;9.108;2023-10-19T04:36:33;37.88;34.38;48.23;;
40103;Laerm;25814;48.550;9.108;2023-10-19T04:38:59;36.60;33.62;41.73;;
40103;Laerm;25814;48.550;9.108;2023-10-19T04:41:25;36.56;34.06;40.71;;
40103;Laerm;25814;48.550;9.108;2023-10-19T04:43:54;37.23;34.78;43.45;;
40103;Laerm;25814;48.550;9.108;2023-10-19T04:46:23;38.42;34.93;52.30;;
40103;Laerm;25814;48.550;9.108;2023-10-19T04:48:49;36.57;34.50;41.28;;
40103;Laerm;25814;48.550;9.108;2023-10-19T04:51:16;36.90;34.63;41.31;;
40103;Laerm;25814;48.550;9.108;2023-10-19T04:53:42;37.20;34.12;45.32;;
40103;Laerm;25814;48.550;9.108;2023-10-19T04:56:08;37.98;35.19;45.93;;
40103;Laerm;25814;48.550;9.108;2023-10-19T04:58:35;38.09;34.42;48.77;;
40103;Laerm;25814;48.550;9.108;2023-10-19T05:01:01;39.49;34.82;47.23;;
40103;Laerm;25814;48.550;9.108;2023-10-19T05:03:29;38.07;35.08;45.19;;
40103;Laerm;25814;48.550;9.108;2023-10-19T05:05:55;37.73;35.10;47.08;;
40103;Laerm;25814;48.550;9.108;2023-10-19T05:08:24;45.23;35.64;69.78;;
40103;Laerm;25814;48.550;9.108;2023-10-19T05:10:54;42.74;35.60;62.43;;
40103;Laerm;25814;48.550;9.108;2023-10-19T05:13:23;43.69;35.79;53.46;;
40103;Laerm;25814;48.550;9.108;2023-10-19T05:15:51;38.62;35.53;51.44;;
40103;Laerm;25814;48.550;9.108;2023-10-19T05:18:19;39.60;36.04;46.30;;
40103;Laerm;25814;48.550;9.108;2023-10-19T05:20:45;40.13;35.91;48.10;;
40103;Laerm;25814;48.550;9.108;2023-10-19T05:23:11;38.13;35.69;43.30;;
40103;Laerm;25814;48.550;9.108;2023-10-19T05:25:40;40.39;35.20;53.01;;
40103;Laerm;25814;48.550;9.108;2023-10-19T05:28:07;40.52;35.30;53.39;;
40103;Laerm;25814;48.550;9.108;2023-10-19T05:30:34;38.86;34.93;50.08;;
40103;Laerm;25814;48.550;9.108;2023-10-19T05:33:01;37.75;34.54;44.12;;
40103;Laerm;25814;48.550;9.108;2023-10-19T05:35:28;44.36;34.92;61.39;;
40103;Laerm;25814;48.550;9.108;2023-10-19T05:37:55;40.12;36.25;50.79;;
40103;Laerm;25814;48.550;9.108;2023-10-19T05:40:26;39.90;36.37;58.63;;
40103;Laerm;25814;48.550;9.108;2023-10-19T05:42:58;40.80;36.50;50.01;;
40103;Laerm;25814;48.550;9.108;2023-10-19T05:45:26;38.89;36.07;56.20;;
40103;Laerm;25814;48.550;9.108;2023-10-19T05:47:53;49.82;35.82;73.61;;
40103;Laerm;25814;48.550;9.108;2023-10-19T05:50:19;40.70;35.54;57.74;;
40103;Laerm;25814;48.550;9.108;2023-10-19T05:52:44;38.36;35.27;51.34;;
40103;Laerm;25814;48.550;9.108;2023-10-19T05:55:10;39.63;35.27;50.65;;
40103;Laerm;25814;48.550;9.108;2023-10-19T05:57:40;39.73;35.89;50.83;;
40103;Laerm;25814;48.550;9.108;2023-10-19T06:00:08;40.40;35.83;53.72;;
40103;Laerm;25814;48.550;9.108;2023-10-19T06:02:48;42.19;35.87;58.25;;
40103;Laerm;25814;48.550;9.108;2023-10-19T06:05:16;39.57;36.24;48.54;;
40103;Laerm;25814;48.550;9.108;2023-10-19T06:07:46;40.46;36.40;48.07;;
40103;Laerm;25814;48.550;9.108;2023-10-19T06:10:14;45.76;36.44;67.22;;
40103;Laerm;25814;48.550;9.108;2023-10-19T06:12:48;50.38;36.13;65.10;;
40103;Laerm;25814;48.550;9.108;2023-10-19T06:15:16;43.81;36.81;59.75;;
40103;Laerm;25814;48.550;9.108;2023-10-19T06:17:43;41.70;36.62;59.49;;
40103;Laerm;25814;48.550;9.108;2023-10-19T06:20:11;41.09;36.63;57.65;;
40103;Laerm;25814;48.550;9.108;2023-10-19T06:22:48;39.76;36.90;50.16;;
40103;Laerm;25814;48.550;9.108;2023-10-19T06:25:17;41.25;36.52;56.25;;
40103;Laerm;25814;48.550;9.108;2023-10-19T06:27:43;40.55;37.08;54.44;;
40103;Laerm;25814;48.550;9.108;2023-10-19T06:30:09;39.64;36.84;50.04;;
40103;Laerm;25814;48.550;9.108;2023-10-19T06:32:36;39.86;36.77;49.39;;
40103;Laerm;25814;48.550;9.108;2023-10-19T06:35:03;40.21;37.38;49.08;;
40103;Laerm;25814;48.550;9.108;2023-10-19T06:37:29;41.48;37.22;49.38;;
40103;Laerm;25814;48.550;9.108;2023-10-19T06:39:55;43.06;38.29;63.19;;
40103;Laerm;25814;48.550;9.108;2023-10-19T06:42:21;50.21;36.29;73.66;;
40103;Laerm;25814;48.550;9.108;2023-10-19T06:44:47;42.62;36.75;47.75;;
40103;Laerm;25814;48.550;9.108;2023-10-19T06:47:15;41.79;37.29;49.17;;
40103;Laerm;25814;48.550;9.108;2023-10-19T06:49:41;41.59;37.53;54.24;;
40103;Laerm;25814;48.550;9.108;2023-10-19T06:52:07;44.32;37.04;51.95;;
40103;Laerm;25814;48.550;9.108;2023-10-19T06:54:36;43.18;36.73;57.79;;
40103;Laerm;25814;48.550;9.108;2023-10-19T06:57:03;42.12;36.20;54.36;;
40103;Laerm;25814;48.550;9.108;2023-10-19T06:59:29;42.44;37.49;59.03;;
40103;Laerm;25814;48.550;9.108;2023-10-19T07:01:55;42.25;36.89;56.76;;
40103;Laerm;25814;48.550;9.108;2023-10-19T07:04:21;41.17;36.12;56.81;;
40103;Laerm;25814;48.550;9.108;2023-10-19T07:06:46;39.87;36.71;47.94;;
40103;Laerm;25814;48.550;9.108;2023-10-19T07:09:13;39.59;35.38;61.45;;
40103;Laerm;25814;48.550;9.108;2023-10-19T07:11:40;50.45;35.55;73.22;;
40103;Laerm;25814;48.550;9.108;2023-10-19T07:14:10;50.52;36.40;75.25;;
40103;Laerm;25814;48.550;9.108;2023-10-19T07:16:39;38.30;35.48;44.06;;
40103;Laerm;25814;48.550;9.108;2023-10-19T07:19:06;38.24;35.08;51.24;;
40103;Laerm;25814;48.550;9.108;2023-10-19T07:21:34;37.83;35.74;45.76;;
40103;Laerm;25814;48.550;9.108;2023-10-19T07:24:03;37.80;35.21;46.56;;
40103;Laerm;25814;48.550;9.108;2023-10-19T07:26:31;38.74;35.37;50.19;;
40103;Laerm;25814;48.550;9.108;2023-10-19T07:28:59;38.57;35.07;49.20;;
40103;Laerm;25814;48.550;9.108;2023-10-19T07:31:25;36.67;34.86;40.41;;
40103;Laerm;25814;48.550;9.108;2023-10-19T07:33:54;37.61;34.94;43.52;;
40103;Laerm;25814;48.550;9.108;2023-10-19T07:36:22;39.45;36.11;52.73;;
40103;Laerm;25814;48.550;9.108;2023-10-19T07:38:50;43.49;35.25;61.17;;
40103;Laerm;25814;48.550;9.108;2023-10-19T07:41:17;38.20;34.38;52.05;;
40103;Laerm;25814;48.550;9.108;2023-10-19T07:43:43;38.23;34.47;51.35;;
40103;Laerm;25814;48.550;9.108;2023-10-19T07:46:09;47.62;35.43;63.67;;
40103;Laerm;25814;48.550;9.108;2023-10-19T07:48:37;41.30;34.57;60.54;;
40103;Laerm;25814;48.550;9.108;2023-10-19T07:51:03;39.79;33.62;51.63;;
40103;Laerm;25814;48.550;9.108;2023-10-19T07:53:29;37.76;34.60;49.71;;
40103;Laerm;25814;48.550;9.108;2023-10-19T07:55:56;37.35;33.92;58.56;;
40103;Laerm;25814;48.550;9.108;2023-10-19T07:58:22;39.68;34.76;62.53;;
40103;Laerm;25814;48.550;9.108;2023-10-19T08:00:48;37.03;33.79;47.25;;
40103;Laerm;25814;48.550;9.108;2023-10-19T08:03:15;40.61;33.19;60.64;;
40103;Laerm;25814;48.550;9.108;2023-10-19T08:05:42;37.71;33.91;59.85;;
40103;Laerm;25814;48.550;9.108;2023-10-19T08:08:08;37.44;35.44;40.25;;
40103;Laerm;25814;48.550;9.108;2023-10-19T08:10:34;38.14;35.49;45.61;;
40103;Laerm;25814;48.550;9.108;2023-10-19T08:13:00;38.49;35.64;48.49;;
40103;Laerm;25814;48.550;9.108;2023-10-19T08:15:26;37.68;34.93;46.46;;
40103;Laerm;25814;48.550;9.108;2023-10-19T08:17:55;38.07;35.53;45.26;;
40103;Laerm;25814;48.550;9.108;2023-10-19T08:20:21;37.81;34.95;43.79;;
40103;Laerm;25814;48.550;9.108;2023-10-19T08:22:58;37.18;35.16;44.43;;
40103;Laerm;25814;48.550;9.108;2023-10-19T08:25:26;37.28;34.66;41.75;;
40103;Laerm;25814;48.550;9.108;2023-10-19T08:27:53;36.66;33.82;43.15;;
40103;Laerm;25814;48.550;9.108;2023-10-19T08:30:23;37.66;34.64;46.75;;
40103;Laerm;25814;48.550;9.108;2023-10-19T08:32:51;38.14;35.95;50.83;;
40103;Laerm;25814;48.550;9.108;2023-10-19T08:35:19;37.05;34.40;44.59;;
40103;Laerm;25814;48.550;9.108;2023-10-19T08:37:55;38.25;35.69;48.28;;
40103;Laerm;25814;48.550;9.108;2023-10-19T08:40:26;38.27;35.78;44.16;;
40103;Laerm;25814;48.550;9.108;2023-10-19T08:42:52;38.47;36.25;45.33;;
40103;Laerm;25814;48.550;9.108;2023-10-19T08:45:19;38.00;35.06;44.54;;
40103;Laerm;25814;48.550;9.108;2023-10-19T08:48:00;40.56;35.42;46.47;;
40103;Laerm;25814;48.550;9.108;2023-10-19T08:50:29;40.53;36.58;47.46;;
40103;Laerm;25814;48.550;9.108;2023-10-19T08:52:58;38.41;35.18;44.84;;
40103;Laerm;25814;48.550;9.108;2023-10-19T08:55:25;37.93;34.64;48.46;;
40103;Laerm;25814;48.550;9.108;2023-10-19T08:57:52;37.50;35.34;46.89;;
40103;Laerm;25814;48.550;9.108;2023-10-19T09:00:19;37.61;34.94;45.34;;
40103;Laerm;25814;48.550;9.108;2023-10-19T09:02:45;37.80;34.52;50.23;;
40103;Laerm;25814;48.550;9.108;2023-10-19T09:05:12;36.88;35.01;38.90;;
40103;Laerm;25814;48.550;9.108;2023-10-19T09:07:53;38.58;34.06;57.76;;
40103;Laerm;25814;48.550;9.108;2023-10-19T09:10:23;37.09;34.43;49.04;;
40103;Laerm;25814;48.550;9.108;2023-10-19T09:13:06;39.33;34.10;55.24;;
40103;Laerm;25814;48.550;9.108;2023-10-19T09:15:38;45.69;34.90;69.04;;
40103;Laerm;25814;48.550;9.108;2023-10-19T09:18:22;37.08;35.03;45.65;;
40103;Laerm;25814;48.550;9.108;2023-10-19T09:20:51;43.55;34.53;60.01;;
40103;Laerm;25814;48.550;9.108;2023-10-19T09:23:34;43.07;34.87;62.57;;
40103;Laerm;25814;48.550;9.108;2023-10-19T09:26:02;41.53;34.73;60.91;;
40103;Laerm;25814;48.550;9.108;2023-10-19T09:28:28;38.50;33.76;54.69;;
40103;Laerm;25814;48.550;9.108;2023-10-19T09:30:55;37.01;34.22;48.47;;
40103;Laerm;25814;48.550;9.108;2023-10-19T09:33:22;36.93;34.09;42.60;;
40103;Laerm;25814;48.550;9.108;2023-10-19T09:35:50;36.39;33.94;43.21;;
40103;Laerm;25814;48.550;9.108;2023-10-19T09:38:21;37.55;34.57;41.97;;
40103;Laerm;25814;48.550;9.108;2023-10-19T09:40:52;39.23;33.55;57.70;;
40103;Laerm;25814;48.550;9.108;2023-10-19T09:43:34;39.19;35.06;53.79;;
40103;Laerm;25814;48.550;9.108;2023-10-19T09:46:06;46.28;34.78;59.71;;
40103;Laerm;25814;48.550;9.108;2023-10-19T09:48:39;39.39;35.93;50.72;;
40103;Laerm;25814;48.550;9.108;2023-10-19T09:51:07;43.35;34.86;59.61;;
40103;Laerm;25814;48.550;9.108;2023-10-19T09:53:36;38.49;34.41;55.66;;
40103;Laerm;25814;48.550;9.108;2023-10-19T09:56:06;38.22;34.12;46.26;;
40103;Laerm;25814;48.550;9.108;2023-10-19T09:58:40;42.60;36.31;58.07;;
40103;Laerm;25814;48.550;9.108;2023-10-19T10:01:10;38.55;33.43;47.18;;
40103;Laerm;25814;48.550;9.108;2023-10-19T10:03:44;37.85;33.82;47.82;;
40103;Laerm;25814;48.550;9.108;2023-10-19T10:06:12;44.38;33.57;68.59;;
40103;Laerm;25814;48.550;9.108;2023-10-19T10:08:44;36.86;33.47;49.50;;
40103;Laerm;25814;48.550;9.108;2023-10-19T10:11:16;38.09;34.09;59.83;;
40103;Laerm;25814;48.550;9.108;2023-10-19T10:13:42;38.26;33.66;48.63;;
40103;Laerm;25814;48.550;9.108;2023-10-19T10:16:13;39.41;34.46;56.87;;
40103;Laerm;25814;48.550;9.108;2023-10-19T10:18:42;38.24;33.68;47.25;;
40103;Laerm;25814;48.550;9.108;2023-10-19T10:21:22;37.63;34.46;44.09;;
40103;Laerm;25814;48.550;9.108;2023-10-19T10:26:24;38.53;34.71;44.11;;
40103;Laerm;25814;48.550;9.108;2023-10-19T10:31:47;36.55;33.69;43.79;;
40103;Laerm;25814;48.550;9.108;2023-10-19T10:37:01;49.66;33.55;74.97;;
40103;Laerm;25814;48.550;9.108;2023-10-19T10:39:29;43.14;33.89;64.74;;
40103;Laerm;25814;48.550;9.108;2023-10-19T10:42:02;54.38;34.20;84.72;;
40103;Laerm;25814;48.550;9.108;2023-10-19T10:44:45;44.19;34.17;65.81;;
40103;Laerm;25814;48.550;9.108;2023-10-19T10:47:19;50.94;35.24;80.94;;
40103;Laerm;25814;48.550;9.108;2023-10-19T10:49:58;46.37;34.38;74.10;;
40103;Laerm;25814;48.550;9.108;2023-10-19T10:52:34;43.86;36.21;67.39;;
40103;Laerm;25814;48.550;9.108;2023-10-19T10:55:10;52.08;36.28;78.37;;
40103;Laerm;25814;48.550;9.108;2023-10-19T10:57:38;46.64;36.81;67.39;;
40103;Laerm;25814;48.550;9.108;2023-10-19T11:02:44;41.07;34.09;54.08;;
40103;Laerm;25814;48.550;9.108;2023-10-19T11:05:12;38.10;33.94;47.20;;
40103;Laerm;25814;48.550;9.108;2023-10-19T11:08:02;43.90;34.94;57.74;;
40103;Laerm;25814;48.550;9.108;2023-10-19T11:10:29;50.89;35.80;64.14;;
40103;Laerm;25814;48.550;9.108;2023-10-19T11:13:02;50.84;46.26;53.84;;
40103;Laerm;25814;48.550;9.108;2023-10-19T11:15:28;51.96;49.27;57.57;;
40103;Laerm;25814;48.550;9.108;2023-10-19T11:17:54;52.24;50.09;56.97;;
40103;Laerm;25814;48.550;9.108;2023-10-19T11:20:24;50.07;47.89;54.14;;
40103;Laerm;25814;48.550;9.108;2023-10-19T11:22:52;45.15;41.77;52.04;;
40103;Laerm;25814;48.550;9.108;2023-10-19T11:25:20;42.54;40.18;48.78;;
40103;Laerm;25814;48.550;9.108;2023-10-19T11:27:46;47.17;44.08;51.51;;
40103;Laerm;25814;48.550;9.108;2023-10-19T11:30:26;43.44;39.32;51.92;;
40103;Laerm;25814;48.550;9.108;2023-10-19T11:32:53;41.40;38.32;50.18;;
40103;Laerm;25814;48.550;9.108;2023-10-19T11:35:26;40.78;36.56;50.10;;
40103;Laerm;25814;48.550;9.108;2023-10-19T11:37:55;42.66;36.27;62.87;;
40103;Laerm;25814;48.550;9.108;2023-10-19T11:40:23;43.90;37.85;57.51;;
40103;Laerm;25814;48.550;9.108;2023-10-19T11:42:50;45.40;41.39;56.24;;
40103;Laerm;25814;48.550;9.108;2023-10-19T11:45:18;43.36;40.95;51.05;;
40103;Laerm;25814;48.550;9.108;2023-10-19T11:47:44;43.69;41.47;50.07;;
40103;Laerm;25814;48.550;9.108;2023-10-19T11:50:11;43.82;41.22;53.48;;
40103;Laerm;25814;48.550;9.108;2023-10-19T11:52:41;44.54;42.15;50.96;;
40103;Laerm;25814;48.550;9.108;2023-10-19T11:55:08;47.82;44.69;52.38;;
40103;Laerm;25814;48.550;9.108;2023-10-19T11:57:34;48.23;45.96;55.02;;
40103;Laerm;25814;48.550;9.108;2023-10-19T12:00:02;45.48;42.91;52.05;;
40103;Laerm;25814;48.550;9.108;2023-10-19T12:02:37;48.83;45.59;53.86;;
40103;Laerm;25814;48.550;9.108;2023-10-19T12:05:05;51.35;47.01;66.11;;
40103;Laerm;25814;48.550;9.108;2023-10-19T12:07:37;48.20;44.29;60.02;;
40103;Laerm;25814;48.550;9.108;2023-10-19T12:10:10;44.97;42.59;52.20;;
40103;Laerm;25814;48.550;9.108;2023-10-19T12:12:37;45.99;38.21;59.26;;
40103;Laerm;25814;48.550;9.108;2023-10-19T12:15:06;44.15;37.99;56.98;;
40103;Laerm;25814;48.550;9.108;2023-10-19T12:17:33;44.63;36.43;62.37;;
40103;Laerm;25814;48.550;9.108;2023-10-19T12:19:59;37.70;34.74;46.29;;
40103;Laerm;25814;48.550;9.108;2023-10-19T12:22:25;39.04;34.22;55.72;;
40103;Laerm;25814;48.550;9.108;2023-10-19T12:24:57;38.37;34.96;47.01;;
40103;Laerm;25814;48.550;9.108;2023-10-19T12:27:24;41.59;35.77;55.36;;
40103;Laerm;25814;48.550;9.108;2023-10-19T12:29:51;36.86;33.72;48.49;;
40103;Laerm;25814;48.550;9.108;2023-10-19T12:32:21;38.47;34.37;48.27;;
40103;Laerm;25814;48.550;9.108;2023-10-19T12:34:47;43.18;34.47;62.66;;
40103;Laerm;25814;48.550;9.108;2023-10-19T12:37:21;40.76;34.14;62.49;;
40103;Laerm;25814;48.550;9.108;2023-10-19T12:39:47;36.92;33.75;47.56;;
40103;Laerm;25814;48.550;9.108;2023-10-19T12:42:14;38.53;34.29;49.65;;
40103;Laerm;25814;48.550;9.108;2023-10-19T12:44:41;48.19;33.25;72.84;;
40103;Laerm;25814;48.550;9.108;2023-10-19T12:47:08;44.05;35.06;54.60;;
40103;Laerm;25814;48.550;9.108;2023-10-19T12:49:37;43.86;36.61;58.01;;
40103;Laerm;25814;48.550;9.108;2023-10-19T12:52:03;40.31;36.08;53.56;;
40103;Laerm;25814;48.550;9.108;2023-10-19T12:54:29;46.99;39.01;59.19;;
40103;Laerm;25814;48.550;9.108;2023-10-19T12:56:55;50.28;45.44;60.15;;
40103;Laerm;25814;48.550;9.108;2023-10-19T12:59:21;50.66;45.93;63.22;;
40103;Laerm;25814;48.550;9.108;2023-10-19T13:01:47;48.59;44.08;62.39;;
40103;Laerm;25814;48.550;9.108;2023-10-19T13:04:15;43.62;37.93;61.11;;
40103;Laerm;25814;48.550;9.108;2023-10-19T13:06:44;42.40;35.75;56.93;;
40103;Laerm;25814;48.550;9.108;2023-10-19T13:09:12;38.42;35.11;47.76;;
40103;Laerm;25814;48.550;9.108;2023-10-19T13:11:41;39.92;35.25;59.90;;
40103;Laerm;25814;48.550;9.108;2023-10-19T13:14:09;42.27;34.11;54.71;;
40103;Laerm;25814;48.550;9.108;2023-10-19T13:16:37;43.35;34.11;58.65;;
40103;Laerm;25814;48.550;9.108;2023-10-19T13:19:03;39.93;33.97;56.01;;
40103;Laerm;25814;48.550;9.108;2023-10-19T13:21:37;38.68;33.59;60.78;;
40103;Laerm;25814;48.550;9.108;2023-10-19T13:24:03;40.82;34.50;53.30;;
40103;Laerm;25814;48.550;9.108;2023-10-19T13:26:31;40.05;33.92;52.59;;
40103;Laerm;25814;48.550;9.108;2023-10-19T13:28:57;40.87;34.04;54.42;;
40103;Laerm;25814;48.550;9.108;2023-10-19T13:31:23;43.27;38.89;56.30;;
40103;Laerm;25814;48.550;9.108;2023-10-19T13:33:51;42.49;38.57;56.99;;
40103;Laerm;25814;48.550;9.108;2023-10-19T13:36:18;45.63;40.72;50.33;;
40103;Laerm;25814;48.550;9.108;2023-10-19T13:38:44;40.35;34.67;48.01;;
40103;Laerm;25814;48.550;9.108;2023-10-19T13:41:11;40.21;35.27;48.41;;
40103;Laerm;25814;48.550;9.108;2023-10-19T13:43:39;39.45;34.14;48.12;;
40103;Laerm;25814;48.550;9.108;2023-10-19T13:46:07;42.63;34.62;55.31;;
40103;Laerm;25814;48.550;9.108;2023-10-19T13:48:33;36.69;33.00;44.60;;
40103;Laerm;25814;48.550;9.108;2023-10-19T13:50:59;39.04;32.96;50.34;;
40103;Laerm;25814;48.550;9.108;2023-10-19T13:53:26;40.33;37.19;55.75;;
40103;Laerm;25814;48.550;9.108;2023-10-19T13:55:52;39.18;34.73;53.69;;
40103;Laerm;25814;48.550;9.108;2023-10-19T13:58:18;37.83;34.52;56.38;;
40103;Laerm;25814;48.550;9.108;2023-10-19T14:00:44;38.65;33.83;52.72;;
40103;Laerm;25814;48.550;9.108;2023-10-19T14:03:11;38.93;32.66;49.34;;
40103;Laerm;25814;48.550;9.108;2023-10-19T14:05:43;37.71;32.63;46.67;;
40103;Laerm;25814;48.550;9.108;2023-10-19T14:08:13;37.33;33.25;49.16;;